sensor_id;sensor_type;location;lat;lon;timestamp;pressure;altitude;pressure_sealevel;temperature;humidity
36454;BME280;22478;51.740;-1.314;2023-08-20T00:01:28;100616.40;;;16.01;100.00
36454;BME280;22478;51.740;-1.314;2023-08-20T00:03:56;100614.88;;;16.33;100.00
36454;BME280;22478;51.740;-1.314;2023-08-20T00:06:24;100611.92;;;16.52;100.00
36454;BME280;22478;51.740;-1.314;2023-08-20T00:08:52;100612.68;;;16.10;100.00
36454;BME280;22478;51.740;-1.314;2023-08-20T00:11:19;100617.11;;;16.42;100.00
36454;BME280;22478;51.740;-1.314;2023-08-20T00:13:46;100625.88;;;16.58;100.00
36454;BME280;22478;51.740;-1.314;2023-08-20T00:16:13;100627.05;;;15.56;100.00
36454;BME280;22478;51.740;-1.314;2023-08-20T00:18:41;100624.75;;;16.37;100.00
36454;BME280;22478;51.740;-1.314;2023-08-20T00:21:09;100631.86;;;15.52;100.00
36454;BME280;22478;51.740;-1.314;2023-08-20T00:23:37;100632.77;;;16.06;100.00
36454;BME280;22478;51.740;-1.314;2023-08-20T00:26:05;100638.47;;;15.40;100.00
36454;BME280;22478;51.740;-1.314;2023-08-20T00:28:32;100634.13;;;16.05;100.00
36454;BME280;22478;51.740;-1.314;2023-08-20T00:30:59;100632.54;;;15.51;100.00
36454;BME280;22478;51.740;-1.314;2023-08-20T00:33:26;100633.49;;;15.90;100.00
36454;BME280;22478;51.740;-1.314;2023-08-20T00:35:53;100637.76;;;14.36;100.00
36454;BME280;22478;51.740;-1.314;2023-08-20T00:38:20;100635.13;;;15.27;100.00
36454;BME280;22478;51.740;-1.314;2023-08-20T00:40:47;100637.76;;;15.61;100.00
36454;BME280;22478;51.740;-1.314;2023-08-20T00:43:14;100649.80;;;13.46;100.00
36454;BME280;22478;51.740;-1.314;2023-08-20T00:45:42;100647.88;;;14.95;100.00
36454;BME280;22478;51.740;-1.314;2023-08-20T00:48:10;100649.94;;;14.32;100.00
36454;BME280;22478;51.740;-1.314;2023-08-20T00:50:38;100655.02;;;14.32;100.00
36454;BME280;22478;51.740;-1.314;2023-08-20T00:53:06;100656.32;;;13.79;100.00
36454;BME280;22478;51.740;-1.314;2023-08-20T00:55:33;100653.77;;;15.65;100.00
36454;BME280;22478;51.740;-1.314;2023-08-20T00:58:00;100657.83;;;14.65;100.00
36454;BME280;22478;51.740;-1.314;2023-08-20T01:00:27;100661.43;;;13.45;100.00
36454;BME280;22478;51.740;-1.314;2023-08-20T01:02:54;100669.71;;;12.27;100.00
36454;BME280;22478;51.740;-1.314;2023-08-20T01:05:21;100661.42;;;13.94;100.00
36454;BME280;22478;51.740;-1.314;2023-08-20T01:08:01;100656.83;;;14.03;100.00
36454;BME280;22478;51.740;-1.314;2023-08-20T01:10:39;100662.40;;;13.75;100.00
36454;BME280;22478;51.740;-1.314;2023-08-20T01:13:07;100664.17;;;13.06;100.00
36454;BME280;22478;51.740;-1.314;2023-08-20T01:15:34;100659.86;;;13.93;100.00
36454;BME280;22478;51.740;-1.314;2023-08-20T01:18:01;100664.92;;;14.13;100.00
36454;BME280;22478;51.740;-1.314;2023-08-20T01:20:31;100666.28;;;13.97;100.00
36454;BME280;22478;51.740;-1.314;2023-08-20T01:23:32;100670.78;;;13.69;100.00
36454;BME280;22478;51.740;-1.314;2023-08-20T01:26:18;100665.71;;;14.07;100.00
36454;BME280;22478;51.740;-1.314;2023-08-20T01:28:48;100671.67;;;12.43;100.00
36454;BME280;22478;51.740;-1.314;2023-08-20T01:31:16;100677.35;;;13.21;100.00
36454;BME280;22478;51.740;-1.314;2023-08-20T01:33:43;100673.33;;;13.89;100.00
36454;BME280;22478;51.740;-1.314;2023-08-20T01:36:10;100671.94;;;12.86;100.00
36454;BME280;22478;51.740;-1.314;2023-08-20T01:38:37;100666.90;;;14.23;100.00
36454;BME280;22478;51.740;-1.314;2023-08-20T01:41:05;100674.34;;;14.24;100.00
36454;BME280;22478;51.740;-1.314;2023-08-20T01:43:32;100672.83;;;14.09;100.00
36454;BME280;22478;51.740;-1.314;2023-08-20T01:45:59;100668.52;;;14.63;100.00
36454;BME280;22478;51.740;-1.314;2023-08-20T01:48:26;100670.56;;;14.45;100.00
36454;BME280;22478;51.740;-1.314;2023-08-20T01:50:53;100670.62;;;14.47;100.00
36454;BME280;22478;51.740;-1.314;2023-08-20T01:53:20;100677.52;;;13.99;100.00
36454;BME280;22478;51.740;-1.314;2023-08-20T01:55:47;100677.46;;;13.89;100.00
36454;BME280;22478;51.740;-1.314;2023-08-20T01:58:14;100677.22;;;13.73;100.00
36454;BME280;22478;51.740;-1.314;2023-08-20T02:00:41;100678.99;;;13.98;100.00
36454;BME280;22478;51.740;-1.314;2023-08-20T02:03:08;100679.36;;;13.47;100.00
36454;BME280;22478;51.740;-1.314;2023-08-20T02:05:35;100684.98;;;13.26;100.00
36454;BME280;22478;51.740;-1.314;2023-08-20T02:08:02;100681.30;;;13.30;100.00
36454;BME280;22478;51.740;-1.314;2023-08-20T02:10:30;100685.31;;;13.40;100.00
36454;BME280;22478;51.740;-1.314;2023-08-20T02:12:57;100688.06;;;12.98;100.00
36454;BME280;22478;51.740;-1.314;2023-08-20T02:15:24;100687.04;;;13.35;100.00
36454;BME280;22478;51.740;-1.314;2023-08-20T02:17:51;100683.67;;;13.60;100.00
36454;BME280;22478;51.740;-1.314;2023-08-20T02:20:18;100678.21;;;13.24;100.00
36454;BME280;22478;51.740;-1.314;2023-08-20T02:22:45;100678.26;;;13.26;100.00
36454;BME280;22478;51.740;-1.314;2023-08-20T02:25:12;100676.99;;;13.47;100.00
36454;BME280;22478;51.740;-1.314;2023-08-20T02:27:39;100676.47;;;13.02;100.00
36454;BME280;22478;51.740;-1.314;2023-08-20T02:30:07;100676.79;;;13.66;100.00
36454;BME280;22478;51.740;-1.314;2023-08-20T02:32:35;100681.28;;;13.72;100.00
36454;BME280;22478;51.740;-1.314;2023-08-20T02:35:03;100684.06;;;13.88;100.00
36454;BME280;22478;51.740;-1.314;2023-08-20T02:37:30;100687.24;;;13.95;100.00
36454;BME280;22478;51.740;-1.314;2023-08-20T02:39:57;100688.58;;;13.63;100.00
36454;BME280;22478;51.740;-1.314;2023-08-20T02:42:24;100686.58;;;14.39;100.00
36454;BME280;22478;51.740;-1.314;2023-08-20T02:44:51;100682.46;;;14.33;100.00
36454;BME280;22478;51.740;-1.314;2023-08-20T02:47:18;100682.33;;;14.59;100.00
36454;BME280;22478;51.740;-1.314;2023-08-20T02:49:45;100689.88;;;12.77;100.00
36454;BME280;22478;51.740;-1.314;2023-08-20T02:52:12;100682.29;;;13.64;100.00
36454;BME280;22478;51.740;-1.314;2023-08-20T02:54:39;100685.66;;;14.13;100.00
36454;BME280;22478;51.740;-1.314;2023-08-20T02:57:06;100690.09;;;13.23;100.00
36454;BME280;22478;51.740;-1.314;2023-08-20T02:59:33;100691.15;;;14.28;100.00
36454;BME280;22478;51.740;-1.314;2023-08-20T03:02:00;100695.80;;;13.39;100.00
36454;BME280;22478;51.740;-1.314;2023-08-20T03:04:28;100698.50;;;12.94;100.00
36454;BME280;22478;51.740;-1.314;2023-08-20T03:06:55;100696.68;;;13.91;100.00
36454;BME280;22478;51.740;-1.314;2023-08-20T03:09:22;100693.49;;;14.36;100.00
36454;BME280;22478;51.740;-1.314;2023-08-20T03:11:49;100697.14;;;13.13;100.00
36454;BME280;22478;51.740;-1.314;2023-08-20T03:14:16;100702.76;;;13.86;100.00
36454;BME280;22478;51.740;-1.314;2023-08-20T03:16:43;100704.31;;;13.44;100.00
36454;BME280;22478;51.740;-1.314;2023-08-20T03:19:10;100698.09;;;13.78;100.00
36454;BME280;22478;51.740;-1.314;2023-08-20T03:21:38;100697.61;;;13.06;100.00
36454;BME280;22478;51.740;-1.314;2023-08-20T03:24:06;100694.85;;;12.72;100.00
36454;BME280;22478;51.740;-1.314;2023-08-20T03:26:34;100692.56;;;13.41;100.00
36454;BME280;22478;51.740;-1.314;2023-08-20T03:29:01;100691.76;;;13.50;100.00
36454;BME280;22478;51.740;-1.314;2023-08-20T03:31:27;100696.25;;;13.25;100.00
36454;BME280;22478;51.740;-1.314;2023-08-20T03:33:54;100699.40;;;13.20;100.00
36454;BME280;22478;51.740;-1.314;2023-08-20T03:36:22;100703.37;;;12.84;100.00
36454;BME280;22478;51.740;-1.314;2023-08-20T03:38:49;100705.48;;;12.17;100.00
36454;BME280;22478;51.740;-1.314;2023-08-20T03:41:16;100706.33;;;14.01;100.00
36454;BME280;22478;51.740;-1.314;2023-08-20T03:43:43;100701.53;;;14.08;100.00
36454;BME280;22478;51.740;-1.314;2023-08-20T03:46:10;100707.30;;;13.18;100.00
36454;BME280;22478;51.740;-1.314;2023-08-20T03:48:37;100704.51;;;12.59;100.00
36454;BME280;22478;51.740;-1.314;2023-08-20T03:51:05;100701.55;;;13.72;100.00
36454;BME280;22478;51.740;-1.314;2023-08-20T03:53:31;100695.60;;;14.15;100.00
36454;BME280;22478;51.740;-1.314;2023-08-20T03:55:59;100702.70;;;12.35;100.00
36454;BME280;22478;51.740;-1.314;2023-08-20T03:58:26;100705.40;;;14.04;100.00
36454;BME280;22478;51.740;-1.314;2023-08-20T04:00:53;100710.01;;;13.42;100.00
36454;BME280;22478;51.740;-1.314;2023-08-20T04:03:20;100710.94;;;13.46;100.00
36454;BME280;22478;51.740;-1.314;2023-08-20T04:05:49;100713.77;;;13.52;100.00
36454;BME280;22478;51.740;-1.314;2023-08-20T04:08:17;100715.06;;;13.68;100.00
36454;BME280;22478;51.740;-1.314;2023-08-20T04:10:44;100716.43;;;12.91;100.00
36454;BME280;22478;51.740;-1.314;2023-08-20T04:13:12;100718.31;;;13.21;100.00
36454;BME280;22478;51.740;-1.314;2023-08-20T04:15:39;100718.23;;;13.94;100.00
36454;BME280;22478;51.740;-1.314;2023-08-20T04:18:06;100720.76;;;14.50;100.00
36454;BME280;22478;51.740;-1.314;2023-08-20T04:20:34;100728.04;;;12.67;100.00
36454;BME280;22478;51.740;-1.314;2023-08-20T04:23:01;100722.60;;;14.61;100.00
36454;BME280;22478;51.740;-1.314;2023-08-20T04:25:28;100726.22;;;13.23;100.00
36454;BME280;22478;51.740;-1.314;2023-08-20T04:27:55;100721.26;;;14.79;100.00
36454;BME280;22478;51.740;-1.314;2023-08-20T04:30:22;100726.95;;;13.29;100.00
36454;BME280;22478;51.740;-1.314;2023-08-20T04:32:49;100726.34;;;13.52;100.00
36454;BME280;22478;51.740;-1.314;2023-08-20T04:35:16;100721.72;;;14.29;100.00
36454;BME280;22478;51.740;-1.314;2023-08-20T04:37:43;100728.01;;;14.33;100.00
36454;BME280;22478;51.740;-1.314;2023-08-20T04:40:10;100726.52;;;15.28;100.00
36454;BME280;22478;51.740;-1.314;2023-08-20T04:42:37;100736.85;;;13.98;100.00
36454;BME280;22478;51.740;-1.314;2023-08-20T04:45:06;100741.18;;;13.29;100.00
36454;BME280;22478;51.740;-1.314;2023-08-20T04:47:34;100742.11;;;14.13;100.00
36454;BME280;22478;51.740;-1.314;2023-08-20T04:50:01;100743.06;;;13.11;100.00
36454;BME280;22478;51.740;-1.314;2023-08-20T04:52:28;100738.10;;;13.49;100.00
36454;BME280;22478;51.740;-1.314;2023-08-20T04:54:55;100733.20;;;14.47;100.00
36454;BME280;22478;51.740;-1.314;2023-08-20T04:57:22;100736.78;;;13.82;100.00
36454;BME280;22478;51.740;-1.314;2023-08-20T04:59:49;100732.15;;;14.32;100.00
36454;BME280;22478;51.740;-1.314;2023-08-20T05:02:16;100740.18;;;12.73;100.00
36454;BME280;22478;51.740;-1.314;2023-08-20T05:04:43;100742.33;;;13.19;100.00
36454;BME280;22478;51.740;-1.314;2023-08-20T05:07:10;100745.73;;;13.82;100.00
36454;BME280;22478;51.740;-1.314;2023-08-20T05:09:37;100754.39;;;13.05;100.00
36454;BME280;22478;51.740;-1.314;2023-08-20T05:12:04;100762.17;;;13.41;100.00
36454;BME280;22478;51.740;-1.314;2023-08-20T05:14:32;100767.87;;;13.39;100.00
36454;BME280;22478;51.740;-1.314;2023-08-20T05:16:59;100769.26;;;13.65;100.00
36454;BME280;22478;51.740;-1.314;2023-08-20T05:19:26;100769.34;;;13.88;100.00
36454;BME280;22478;51.740;-1.314;2023-08-20T05:21:53;100778.70;;;12.87;100.00
36454;BME280;22478;51.740;-1.314;2023-08-20T05:24:20;100777.38;;;13.47;100.00
36454;BME280;22478;51.740;-1.314;2023-08-20T05:26:47;100782.94;;;13.68;100.00
36454;BME280;22478;51.740;-1.314;2023-08-20T05:29:14;100785.57;;;13.27;100.00
36454;BME280;22478;51.740;-1.314;2023-08-20T05:31:41;100790.79;;;12.43;100.00
36454;BME280;22478;51.740;-1.314;2023-08-20T05:34:08;100793.20;;;13.33;100.00
36454;BME280;22478;51.740;-1.314;2023-08-20T05:36:35;100793.73;;;12.73;100.00
36454;BME280;22478;51.740;-1.314;2023-08-20T05:39:03;100796.80;;;14.09;100.00
36454;BME280;22478;51.740;-1.314;2023-08-20T05:41:30;100797.92;;;13.08;100.00
36454;BME280;22478;51.740;-1.314;2023-08-20T05:43:57;100803.00;;;12.65;100.00
36454;BME280;22478;51.740;-1.314;2023-08-20T05:46:24;100804.27;;;14.40;100.00
36454;BME280;22478;51.740;-1.314;2023-08-20T05:48:51;100805.07;;;13.50;100.00
36454;BME280;22478;51.740;-1.314;2023-08-20T05:51:18;100803.56;;;13.71;100.00
36454;BME280;22478;51.740;-1.314;2023-08-20T05:53:45;100803.79;;;14.09;100.00
36454;BME280;22478;51.740;-1.314;2023-08-20T05:56:12;100803.08;;;14.12;100.00
36454;BME280;22478;51.740;-1.314;2023-08-20T05:58:39;100804.92;;;14.07;100.00
36454;BME280;22478;51.740;-1.314;2023-08-20T06:01:06;100808.26;;;13.61;100.00
36454;BME280;22478;51.740;-1.314;2023-08-20T06:03:33;100808.56;;;13.42;100.00
36454;BME280;22478;51.740;-1.314;2023-08-20T06:06:00;100808.54;;;13.57;100.00
36454;BME280;22478;51.740;-1.314;2023-08-20T06:08:28;100810.45;;;15.02;100.00
36454;BME280;22478;51.740;-1.314;2023-08-20T06:10:55;100813.67;;;14.71;100.00
36454;BME280;22478;51.740;-1.314;2023-08-20T06:13:22;100812.03;;;14.77;100.00
36454;BME280;22478;51.740;-1.314;2023-08-20T06:15:49;100815.75;;;15.12;100.00
36454;BME280;22478;51.740;-1.314;2023-08-20T06:18:16;100826.16;;;12.47;100.00
36454;BME280;22478;51.740;-1.314;2023-08-20T06:20:43;100825.05;;;14.07;100.00
36454;BME280;22478;51.740;-1.314;2023-08-20T06:23:10;100824.41;;;14.43;100.00
36454;BME280;22478;51.740;-1.314;2023-08-20T06:25:37;100831.47;;;14.73;100.00
36454;BME280;22478;51.740;-1.314;2023-08-20T06:28:05;100829.26;;;14.18;100.00
36454;BME280;22478;51.740;-1.314;2023-08-20T06:30:32;100833.47;;;14.91;100.00
36454;BME280;22478;51.740;-1.314;2023-08-20T06:32:59;100837.05;;;14.60;100.00
36454;BME280;22478;51.740;-1.314;2023-08-20T06:35:26;100836.59;;;15.08;100.00
36454;BME280;22478;51.740;-1.314;2023-08-20T06:37:53;100843.44;;;14.72;100.00
36454;BME280;22478;51.740;-1.314;2023-08-20T06:40:20;100841.79;;;15.29;100.00
36454;BME280;22478;51.740;-1.314;2023-08-20T06:42:47;100841.75;;;14.49;100.00
36454;BME280;22478;51.740;-1.314;2023-08-20T06:45:14;100835.16;;;15.80;100.00
36454;BME280;22478;51.740;-1.314;2023-08-20T06:47:41;100839.11;;;15.06;100.00
36454;BME280;22478;51.740;-1.314;2023-08-20T06:50:09;100830.17;;;15.39;100.00
36454;BME280;22478;51.740;-1.314;2023-08-20T06:52:36;100834.75;;;15.85;100.00
36454;BME280;22478;51.740;-1.314;2023-08-20T06:55:03;100843.45;;;13.49;100.00
36454;BME280;22478;51.740;-1.314;2023-08-20T06:57:30;100845.74;;;14.07;100.00
36454;BME280;22478;51.740;-1.314;2023-08-20T06:59:57;100847.04;;;16.30;100.00
36454;BME280;22478;51.740;-1.314;2023-08-20T07:02:24;100848.22;;;15.78;100.00
36454;BME280;22478;51.740;-1.314;2023-08-20T07:04:51;100850.28;;;15.53;100.00
36454;BME280;22478;51.740;-1.314;2023-08-20T07:07:18;100847.84;;;16.06;100.00
36454;BME280;22478;51.740;-1.314;2023-08-20T07:09:45;100847.29;;;15.62;100.00
36454;BME280;22478;51.740;-1.314;2023-08-20T07:12:12;100851.44;;;16.02;100.00
36454;BME280;22478;51.740;-1.314;2023-08-20T07:14:39;100852.21;;;16.08;100.00
36454;BME280;22478;51.740;-1.314;2023-08-20T07:17:06;100845.93;;;17.14;100.00
36454;BME280;22478;51.740;-1.314;2023-08-20T07:19:33;100850.76;;;15.40;100.00
36454;BME280;22478;51.740;-1.314;2023-08-20T07:22:00;100852.89;;;15.61;100.00
36454;BME280;22478;51.740;-1.314;2023-08-20T07:24:27;100852.30;;;16.74;100.00
36454;BME280;22478;51.740;-1.314;2023-08-20T07:26:54;100853.21;;;15.42;100.00
36454;BME280;22478;51.740;-1.314;2023-08-20T07:29:21;100860.35;;;15.53;100.00
36454;BME280;22478;51.740;-1.314;2023-08-20T07:31:48;100864.96;;;14.12;100.00
36454;BME280;22478;51.740;-1.314;2023-08-20T07:34:16;100862.46;;;14.67;100.00
36454;BME280;22478;51.740;-1.314;2023-08-20T07:36:43;100871.87;;;14.03;100.00
36454;BME280;22478;51.740;-1.314;2023-08-20T07:39:09;100868.11;;;15.01;100.00
36454;BME280;22478;51.740;-1.314;2023-08-20T07:41:36;100867.98;;;16.09;100.00
36454;BME280;22478;51.740;-1.314;2023-08-20T07:44:04;100871.82;;;13.35;100.00
36454;BME280;22478;51.740;-1.314;2023-08-20T07:46:31;100872.93;;;15.16;100.00
36454;BME280;22478;51.740;-1.314;2023-08-20T07:48:58;100873.81;;;15.18;100.00
36454;BME280;22478;51.740;-1.314;2023-08-20T07:51:25;100874.62;;;16.70;100.00
36454;BME280;22478;51.740;-1.314;2023-08-20T07:53:52;100867.48;;;15.42;100.00
36454;BME280;22478;51.740;-1.314;2023-08-20T07:56:19;100871.68;;;16.08;100.00
36454;BME280;22478;51.740;-1.314;2023-08-20T07:58:46;100868.92;;;16.74;100.00
36454;BME280;22478;51.740;-1.314;2023-08-20T08:01:12;100873.67;;;15.72;100.00
36454;BME280;22478;51.740;-1.314;2023-08-20T08:03:40;100871.44;;;17.51;100.00
36454;BME280;22478;51.740;-1.314;2023-08-20T08:06:07;100873.32;;;15.81;100.00
36454;BME280;22478;51.740;-1.314;2023-08-20T08:08:34;100878.79;;;16.37;100.00
36454;BME280;22478;51.740;-1.314;2023-08-20T08:11:01;100879.00;;;15.72;100.00
36454;BME280;22478;51.740;-1.314;2023-08-20T08:13:28;100879.43;;;14.66;100.00
36454;BME280;22478;51.740;-1.314;2023-08-20T08:15:55;100873.12;;;17.48;100.00
36454;BME280;22478;51.740;-1.314;2023-08-20T08:18:21;100870.51;;;17.51;100.00
36454;BME280;22478;51.740;-1.314;2023-08-20T08:20:49;100871.58;;;18.03;98.64
36454;BME280;22478;51.740;-1.314;2023-08-20T08:23:17;100869.30;;;18.96;96.98
36454;BME280;22478;51.740;-1.314;2023-08-20T08:25:44;100875.14;;;19.02;93.75
36454;BME280;22478;51.740;-1.314;2023-08-20T08:28:11;100877.54;;;18.80;91.72
36454;BME280;22478;51.740;-1.314;2023-08-20T08:30:39;100872.93;;;19.03;88.58
36454;BME280;22478;51.740;-1.314;2023-08-20T08:33:07;100877.55;;;19.04;91.97
36454;BME280;22478;51.740;-1.314;2023-08-20T08:35:33;100885.86;;;17.97;90.92
36454;BME280;22478;51.740;-1.314;2023-08-20T08:38:00;100885.85;;;18.26;85.63
36454;BME280;22478;51.740;-1.314;2023-08-20T08:40:29;100882.59;;;19.67;83.33
36454;BME280;22478;51.740;-1.314;2023-08-20T08:42:56;100887.26;;;19.56;81.70
36454;BME280;22478;51.740;-1.314;2023-08-20T08:45:26;100895.16;;;19.46;86.59
36454;BME280;22478;51.740;-1.314;2023-08-20T08:47:54;100898.89;;;19.62;82.30
36454;BME280;22478;51.740;-1.314;2023-08-20T08:50:21;100897.37;;;19.38;78.17
36454;BME280;22478;51.740;-1.314;2023-08-20T08:52:51;100899.53;;;19.04;78.60
36454;BME280;22478;51.740;-1.314;2023-08-20T08:55:18;100908.26;;;17.13;91.15
36454;BME280;22478;51.740;-1.314;2023-08-20T08:57:46;100902.89;;;18.89;86.12
36454;BME280;22478;51.740;-1.314;2023-08-20T09:00:14;100905.91;;;17.73;89.24
36454;BME280;22478;51.740;-1.314;2023-08-20T09:02:42;100908.36;;;19.07;87.63
36454;BME280;22478;51.740;-1.314;2023-08-20T09:05:10;100907.05;;;19.13;90.45
36454;BME280;22478;51.740;-1.314;2023-08-20T09:07:42;100913.17;;;17.34;90.32
36454;BME280;22478;51.740;-1.314;2023-08-20T09:10:10;100919.22;;;16.59;100.00
36454;BME280;22478;51.740;-1.314;2023-08-20T09:12:37;100918.66;;;18.08;88.32
36454;BME280;22478;51.740;-1.314;2023-08-20T09:15:10;100913.00;;;18.96;83.21
36454;BME280;22478;51.740;-1.314;2023-08-20T09:17:38;100916.39;;;18.37;89.94
36454;BME280;22478;51.740;-1.314;2023-08-20T09:20:06;100914.38;;;19.79;86.73
36454;BME280;22478;51.740;-1.314;2023-08-20T09:22:36;100909.45;;;18.54;82.97
36454;BME280;22478;51.740;-1.314;2023-08-20T09:25:04;100908.08;;;18.28;83.37
36454;BME280;22478;51.740;-1.314;2023-08-20T09:27:39;100904.36;;;22.17;70.14
36454;BME280;22478;51.740;-1.314;2023-08-20T09:30:07;100897.64;;;24.28;64.32
36454;BME280;22478;51.740;-1.314;2023-08-20T09:32:35;100898.44;;;22.58;61.84
36454;BME280;22478;51.740;-1.314;2023-08-20T09:35:03;100895.77;;;21.66;61.40
36454;BME280;22478;51.740;-1.314;2023-08-20T09:37:32;100890.06;;;22.53;62.55
36454;BME280;22478;51.740;-1.314;2023-08-20T09:39:59;100899.40;;;18.83;77.67
36454;BME280;22478;51.740;-1.314;2023-08-20T09:42:27;100897.88;;;18.79;79.70
36454;BME280;22478;51.740;-1.314;2023-08-20T09:44:58;100885.62;;;22.54;63.33
36454;BME280;22478;51.740;-1.314;2023-08-20T09:47:27;100886.17;;;21.87;64.25
36454;BME280;22478;51.740;-1.314;2023-08-20T09:49:56;100894.88;;;20.66;63.35
36454;BME280;22478;51.740;-1.314;2023-08-20T09:52:31;100883.79;;;22.60;59.22
36454;BME280;22478;51.740;-1.314;2023-08-20T09:55:07;100886.09;;;25.09;52.96
36454;BME280;22478;51.740;-1.314;2023-08-20T09:57:36;100891.37;;;24.03;54.98
36454;BME280;22478;51.740;-1.314;2023-08-20T10:00:06;100891.75;;;26.42;53.03
36454;BME280;22478;51.740;-1.314;2023-08-20T10:02:34;100890.94;;;25.24;52.96
36454;BME280;22478;51.740;-1.314;2023-08-20T10:05:02;100888.24;;;23.93;55.46
36454;BME280;22478;51.740;-1.314;2023-08-20T10:07:30;100885.03;;;26.48;48.05
36454;BME280;22478;51.740;-1.314;2023-08-20T10:09:58;100883.51;;;26.71;48.14
36454;BME280;22478;51.740;-1.314;2023-08-20T10:12:25;100890.73;;;21.08;58.74
36454;BME280;22478;51.740;-1.314;2023-08-20T10:14:52;100890.57;;;24.54;54.79
36454;BME280;22478;51.740;-1.314;2023-08-20T10:17:22;100889.07;;;24.70;52.46
36454;BME280;22478;51.740;-1.314;2023-08-20T10:19:52;100887.26;;;23.03;55.89
36454;BME280;22478;51.740;-1.314;2023-08-20T10:22:20;100886.13;;;24.66;52.65
36454;BME280;22478;51.740;-1.314;2023-08-20T10:24:48;100878.18;;;26.21;47.67
36454;BME280;22478;51.740;-1.314;2023-08-20T10:27:25;100880.87;;;26.30;45.66
36454;BME280;22478;51.740;-1.314;2023-08-20T10:29:53;100886.89;;;22.73;53.17
36454;BME280;22478;51.740;-1.314;2023-08-20T10:32:43;100885.38;;;23.92;50.11
36454;BME280;22478;51.740;-1.314;2023-08-20T10:35:11;100884.01;;;23.03;53.52
36454;BME280;22478;51.740;-1.314;2023-08-20T10:37:38;100878.19;;;24.89;50.25
36454;BME280;22478;51.740;-1.314;2023-08-20T10:40:07;100872.75;;;26.72;45.05
36454;BME280;22478;51.740;-1.314;2023-08-20T10:42:41;100869.64;;;27.77;40.57
36454;BME280;22478;51.740;-1.314;2023-08-20T10:45:09;100865.66;;;30.13;38.54
36454;BME280;22478;51.740;-1.314;2023-08-20T10:47:42;100863.00;;;29.98;37.32
36454;BME280;22478;51.740;-1.314;2023-08-20T10:50:11;100854.35;;;29.84;37.38
36454;BME280;22478;51.740;-1.314;2023-08-20T10:52:47;100849.26;;;30.70;36.56
36454;BME280;22478;51.740;-1.314;2023-08-20T10:55:15;100851.30;;;29.75;37.58
36454;BME280;22478;51.740;-1.314;2023-08-20T10:57:42;100858.07;;;29.65;37.34
36454;BME280;22478;51.740;-1.314;2023-08-20T11:00:15;100855.03;;;28.22;37.12
36454;BME280;22478;51.740;-1.314;2023-08-20T11:02:42;100859.08;;;29.71;36.86
36454;BME280;22478;51.740;-1.314;2023-08-20T11:05:16;100857.35;;;29.29;36.47
36454;BME280;22478;51.740;-1.314;2023-08-20T11:07:45;100860.83;;;20.54;46.97
36454;BME280;22478;51.740;-1.314;2023-08-20T11:10:13;100854.19;;;26.18;43.90
36454;BME280;22478;51.740;-1.314;2023-08-20T11:12:42;100848.71;;;26.73;42.55
36454;BME280;22478;51.740;-1.314;2023-08-20T11:15:10;100848.14;;;29.65;39.32
36454;BME280;22478;51.740;-1.314;2023-08-20T11:17:41;100840.99;;;30.92;35.30
36454;BME280;22478;51.740;-1.314;2023-08-20T11:20:09;100841.54;;;28.43;36.54
36454;BME280;22478;51.740;-1.314;2023-08-20T11:22:36;100836.18;;;27.69;37.88
36454;BME280;22478;51.740;-1.314;2023-08-20T11:25:04;100834.01;;;28.82;36.96
36454;BME280;22478;51.740;-1.314;2023-08-20T11:27:31;100838.74;;;28.42;38.48
36454;BME280;22478;51.740;-1.314;2023-08-20T11:29:59;100834.55;;;28.88;36.64
36454;BME280;22478;51.740;-1.314;2023-08-20T11:32:26;100832.37;;;30.66;34.69
36454;BME280;22478;51.740;-1.314;2023-08-20T11:34:54;100827.70;;;31.85;31.12
36454;BME280;22478;51.740;-1.314;2023-08-20T11:37:21;100836.18;;;27.99;32.58
36454;BME280;22478;51.740;-1.314;2023-08-20T11:39:49;100835.95;;;27.07;32.96
36454;BME280;22478;51.740;-1.314;2023-08-20T11:42:16;100832.05;;;30.46;33.54
36454;BME280;22478;51.740;-1.314;2023-08-20T11:44:45;100835.10;;;27.46;35.69
36454;BME280;22478;51.740;-1.314;2023-08-20T11:47:15;100840.00;;;26.12;37.75
36454;BME280;22478;51.740;-1.314;2023-08-20T11:49:42;100826.82;;;31.12;33.15
36454;BME280;22478;51.740;-1.314;2023-08-20T11:52:10;100830.57;;;25.41;36.76
36454;BME280;22478;51.740;-1.314;2023-08-20T11:54:37;100824.35;;;32.03;30.93
36454;BME280;22478;51.740;-1.314;2023-08-20T11:57:06;100825.69;;;28.85;32.43
36454;BME280;22478;51.740;-1.314;2023-08-20T11:59:33;100824.80;;;32.18;30.87
36454;BME280;22478;51.740;-1.314;2023-08-20T12:02:02;100823.32;;;30.56;31.67
36454;BME280;22478;51.740;-1.314;2023-08-20T12:04:30;100817.49;;;30.80;30.35
36454;BME280;22478;51.740;-1.314;2023-08-20T12:07:07;100822.43;;;26.05;34.84
36454;BME280;22478;51.740;-1.314;2023-08-20T12:09:35;100821.17;;;32.46;30.00
36454;BME280;22478;51.740;-1.314;2023-08-20T12:12:05;100822.76;;;32.09;29.70
36454;BME280;22478;51.740;-1.314;2023-08-20T12:14:32;100822.61;;;32.57;29.30
36454;BME280;22478;51.740;-1.314;2023-08-20T12:16:59;100822.23;;;32.59;28.59
36454;BME280;22478;51.740;-1.314;2023-08-20T12:19:27;100826.68;;;30.54;29.16
36454;BME280;22478;51.740;-1.314;2023-08-20T12:21:54;100820.88;;;32.31;28.41
36454;BME280;22478;51.740;-1.314;2023-08-20T12:24:22;100825.80;;;33.13;28.46
36454;BME280;22478;51.740;-1.314;2023-08-20T12:26:50;100821.91;;;32.30;29.09
36454;BME280;22478;51.740;-1.314;2023-08-20T12:29:17;100825.21;;;33.41;27.79
36454;BME280;22478;51.740;-1.314;2023-08-20T12:31:44;100826.84;;;31.14;29.14
36454;BME280;22478;51.740;-1.314;2023-08-20T12:34:11;100824.36;;;30.72;29.98
36454;BME280;22478;51.740;-1.314;2023-08-20T12:36:39;100824.70;;;30.42;31.36